createdAt,value
2017-01-01T00:00:03.537Z,0
2017-01-01T00:05:04.507Z,0
2017-01-01T00:10:04.501Z,0
2017-01-01T00:15:04.604Z,0
2017-01-01T00:20:04.276Z,0
2017-01-01T00:25:04.154Z,0
2017-01-01T00:30:04.944Z,0
2017-01-01T00:35:04.688Z,0
2017-01-01T00:40:04.627Z,0
2017-01-01T00:45:04.901Z,0
2017-01-01T00:50:04.884Z,0
2017-01-01T00:55:04.882Z,0
2017-01-01T01:00:05.071Z,0
2017-01-01T01:05:04.921Z,0
2017-01-01T01:10:04.938Z,0
2017-01-01T01:15:04.121Z,0
2017-01-01T01:20:04.150Z,0
2017-01-01T01:25:04.270Z,0
2017-01-01T01:30:04.158Z,0
2017-01-01T01:35:05.088Z,0
2017-01-01T01:40:04.341Z,0
2017-01-01T01:45:04.034Z,0
2017-01-01T01:50:04.097Z,0
2017-01-01T01:55:04.874Z,0
2017-01-01T02:00:04.815Z,0
2017-01-01T02:05:04.457Z,0
2017-01-01T02:10:04.652Z,0
2017-01-01T02:15:04.335Z,0
2017-01-01T02:20:04.257Z,0
2017-01-01T02:25:04.152Z,0
2017-01-01T02:30:04.174Z,0
2017-01-01T02:35:04.990Z,0
2017-01-01T02:40:04.150Z,0
2017-01-01T02:45:04.905Z,0
2017-01-01T02:50:04.782Z,0
2017-01-01T02:55:04.792Z,0
2017-01-01T03:00:05.080Z,0
2017-01-01T03:05:07.603Z,0
2017-01-01T03:10:04.130Z,0
2017-01-01T03:15:04.138Z,0
2017-01-01T03:20:05.048Z,0
2017-01-01T03:25:04.785Z,0
2017-01-01T03:30:04.719Z,0
2017-01-01T03:35:04.663Z,0
2017-01-01T03:40:04.453Z,0
2017-01-01T03:45:04.305Z,0
2017-01-01T03:50:04.092Z,0
2017-01-01T03:55:05.036Z,0
2017-01-01T04:00:05.079Z,0
2017-01-01T04:05:05.372Z,0
2017-01-01T04:10:04.802Z,0
2017-01-01T04:15:05.017Z,0
2017-01-01T04:20:04.203Z,0
2017-01-01T04:25:04.257Z,0
2017-01-01T04:30:04.279Z,0
2017-01-01T04:35:04.163Z,0
2017-01-01T04:40:04.263Z,0
2017-01-01T04:45:04.933Z,0
2017-01-01T04:50:04.829Z,0
2017-01-01T04:55:04.931Z,0
2017-01-01T05:00:04.005Z,0
2017-01-01T05:05:04.846Z,0
2017-01-01T05:10:03.879Z,0
2017-01-01T05:15:04.937Z,0
2017-01-01T05:20:04.814Z,0
2017-01-01T05:25:04.362Z,0
2017-01-01T05:30:04.256Z,0
2017-01-01T05:35:05.029Z,0
2017-01-01T05:40:04.261Z,0
2017-01-01T05:45:04.140Z,0
2017-01-01T05:50:04.831Z,0
2017-01-01T05:55:04.591Z,0
2017-01-01T06:00:04.325Z,0
2017-01-01T06:05:05.032Z,0
2017-01-01T06:10:05.055Z,0
2017-01-01T06:15:04.295Z,0
2017-01-01T06:20:04.324Z,0
2017-01-01T06:25:05.037Z,0
2017-01-01T06:30:04.183Z,0
2017-01-01T06:35:04.456Z,0
2017-01-01T06:40:04.590Z,0
2017-01-01T06:45:04.607Z,0
2017-01-01T06:50:04.461Z,0
2017-01-01T06:55:04.352Z,0
2017-01-01T07:00:04.235Z,0
2017-01-01T07:05:04.213Z,0
2017-01-01T07:10:04.564Z,2
2017-01-01T07:15:04.521Z,4
2017-01-01T07:20:04.489Z,8
2017-01-01T07:25:04.491Z,13
2017-01-01T07:30:04.202Z,21
2017-01-01T07:35:04.425Z,26
2017-01-01T07:40:04.851Z,34
2017-01-01T07:45:04.815Z,43
2017-01-01T07:50:04.731Z,50
2017-01-01T07:55:04.498Z,72
2017-01-01T08:00:04.616Z,107
2017-01-01T08:05:04.405Z,148
2017-01-01T08:10:04.678Z,196
2017-01-01T08:15:04.714Z,205
2017-01-01T08:20:04.994Z,286
2017-01-01T08:25:04.519Z,327
2017-01-01T08:30:04.485Z,381
2017-01-01T08:35:04.545Z,400
2017-01-01T08:40:04.571Z,511
2017-01-01T08:45:04.555Z,552
2017-01-01T08:50:04.695Z,560
2017-01-01T08:55:04.761Z,589
2017-01-01T09:00:04.512Z,638
2017-01-01T09:05:04.498Z,743
2017-01-01T09:10:04.415Z,893
2017-01-01T09:15:04.267Z,1000
2017-01-01T09:20:05.068Z,1000
2017-01-01T09:25:05.087Z,1000
2017-01-01T09:30:04.141Z,1000
2017-01-01T09:35:04.944Z,1000
2017-01-01T09:40:04.229Z,1000
2017-01-01T09:45:05.023Z,1000
2017-01-01T09:50:08.048Z,1000
2017-01-01T09:55:04.836Z,1000
2017-01-01T10:00:04.674Z,1000
2017-01-01T10:05:04.658Z,1000
2017-01-01T10:10:04.191Z,1000
2017-01-01T10:15:04.134Z,1000
2017-01-01T10:20:06.110Z,1000
2017-01-01T10:25:04.169Z,2000
2017-01-01T10:30:04.991Z,2000
2017-01-01T10:35:04.944Z,2000
2017-01-01T10:40:04.619Z,2000
2017-01-01T10:45:04.865Z,2000
2017-01-01T10:50:04.707Z,2000
2017-01-01T10:55:04.619Z,2000
2017-01-01T11:00:04.479Z,2000
2017-01-01T11:05:04.356Z,2000
2017-01-01T11:10:04.530Z,2000
2017-01-01T11:15:04.518Z,2000
2017-01-01T11:20:04.698Z,2000
2017-01-01T11:25:04.714Z,2000
2017-01-01T11:30:04.781Z,2000
2017-01-01T11:35:04.524Z,2000
2017-01-01T11:40:05.010Z,2000
2017-01-01T11:45:04.293Z,2000
2017-01-01T11:50:04.087Z,2000
2017-01-01T11:55:04.180Z,2000
2017-01-01T12:00:04.040Z,2000
2017-01-01T12:05:03.990Z,2000
2017-01-01T12:10:04.272Z,2000
2017-01-01T12:15:04.312Z,2000
2017-01-01T12:20:04.229Z,2000
2017-01-01T12:25:04.295Z,2000
2017-01-01T12:30:04.138Z,2000
2017-01-01T12:35:04.157Z,1000
2017-01-01T12:40:04.150Z,1000
2017-01-01T12:45:04.166Z,1000
2017-01-01T12:50:04.209Z,1000
2017-01-01T12:55:05.039Z,1000
2017-01-01T13:00:05.365Z,1000
2017-01-01T13:05:06.994Z,2000
2017-01-01T13:10:04.758Z,1000
2017-01-01T13:15:04.950Z,2000
2017-01-01T13:20:05.130Z,2000
2017-01-01T13:25:04.344Z,1000
2017-01-01T13:30:04.408Z,1000
2017-01-01T13:35:04.447Z,1000
2017-01-01T13:40:04.308Z,1000
2017-01-01T13:45:04.020Z,980
2017-01-01T13:50:04.101Z,1000
2017-01-01T13:55:04.144Z,1000
2017-01-01T14:00:04.162Z,1000
2017-01-01T14:05:04.232Z,2000
2017-01-01T14:10:04.558Z,2000
2017-01-01T14:15:04.471Z,2000
2017-01-01T14:20:04.802Z,1000
2017-01-01T14:25:04.791Z,1000
2017-01-01T14:30:04.529Z,1000
2017-01-01T14:35:04.402Z,1000
2017-01-01T14:40:04.780Z,1000
2017-01-01T14:45:05.499Z,747
2017-01-01T14:50:04.367Z,615
2017-01-01T14:55:04.147Z,515
2017-01-01T15:00:03.997Z,437
2017-01-01T15:05:04.942Z,309
2017-01-01T15:10:04.251Z,326
2017-01-01T15:15:04.314Z,167
2017-01-01T15:20:04.412Z,71
2017-01-01T15:25:04.718Z,59
2017-01-01T15:30:04.507Z,44
2017-01-01T15:35:04.405Z,34
2017-01-01T15:40:04.526Z,33
2017-01-01T15:45:04.332Z,32
2017-01-01T15:50:04.263Z,38
2017-01-01T15:55:04.301Z,10
2017-01-01T16:00:04.443Z,7
2017-01-01T16:05:04.240Z,4
2017-01-01T16:10:04.584Z,2
2017-01-01T16:15:04.283Z,0
2017-01-01T16:20:04.355Z,0
2017-01-01T16:25:04.526Z,0
2017-01-01T16:30:04.613Z,0
2017-01-01T16:35:04.804Z,0
2017-01-01T16:40:04.312Z,0
2017-01-01T16:45:04.152Z,0
2017-01-01T16:50:04.031Z,0
2017-01-01T16:55:04.539Z,0
2017-01-01T17:00:04.747Z,0
2017-01-01T17:05:04.080Z,0
2017-01-01T17:10:04.206Z,0
2017-01-01T17:15:04.190Z,0
2017-01-01T17:20:04.248Z,0
2017-01-01T17:25:04.414Z,0
2017-01-01T17:30:04.539Z,0
2017-01-01T17:35:04.627Z,0
2017-01-01T17:40:04.615Z,0
2017-01-01T17:45:04.627Z,0
2017-01-01T17:50:04.465Z,0
2017-01-01T17:55:04.283Z,0
2017-01-01T18:00:04.183Z,0
2017-01-01T18:05:04.240Z,0
2017-01-01T18:10:04.396Z,0
2017-01-01T18:15:04.104Z,0
2017-01-01T18:20:05.148Z,0
2017-01-01T18:25:04.864Z,0
2017-01-01T18:30:05.134Z,0
2017-01-01T18:35:05.027Z,0
2017-01-01T18:40:04.442Z,0
2017-01-01T18:45:04.432Z,0
2017-01-01T18:50:04.561Z,0
2017-01-01T18:55:04.315Z,0
2017-01-01T19:00:04.337Z,0
2017-01-01T19:05:04.179Z,0
2017-01-01T19:10:04.164Z,0
2017-01-01T19:15:04.930Z,0
2017-01-01T19:20:05.043Z,0
2017-01-01T19:25:05.027Z,0
2017-01-01T19:30:05.019Z,0
2017-01-01T19:35:05.260Z,0
2017-01-01T19:40:04.141Z,0
2017-01-01T19:45:04.158Z,0
2017-01-01T19:50:04.171Z,0
2017-01-01T19:55:04.289Z,0
2017-01-01T20:00:04.595Z,0
2017-01-01T20:05:04.463Z,0
2017-01-01T20:10:04.389Z,0
2017-01-01T20:15:04.306Z,0
2017-01-01T20:20:04.341Z,0
2017-01-01T20:25:04.411Z,0
2017-01-01T20:30:04.276Z,0
2017-01-01T20:35:05.100Z,0
2017-01-01T20:40:04.336Z,0
2017-01-01T20:45:04.243Z,0
2017-01-01T20:50:04.212Z,0
2017-01-01T20:55:04.957Z,0
2017-01-01T21:00:04.894Z,0
2017-01-01T21:05:04.895Z,0
2017-01-01T21:10:04.946Z,0
2017-01-01T21:15:04.784Z,0
2017-01-01T21:20:04.899Z,0
2017-01-01T21:25:04.659Z,0
2017-01-01T21:30:04.860Z,0
2017-01-01T21:35:04.817Z,0
2017-01-01T21:40:04.985Z,0
2017-01-01T21:45:04.112Z,0
2017-01-01T21:50:04.878Z,0
2017-01-01T21:55:04.950Z,0
2017-01-01T22:00:04.685Z,0
2017-01-01T22:05:04.642Z,0
2017-01-01T22:10:04.934Z,0
2017-01-01T22:15:04.917Z,0
2017-01-01T22:20:04.933Z,0
2017-01-01T22:25:04.588Z,0
2017-01-01T22:30:04.526Z,0
2017-01-01T22:35:04.546Z,0
2017-01-01T22:40:04.854Z,0
2017-01-01T22:45:04.586Z,0
2017-01-01T22:50:04.426Z,0
2017-01-01T22:55:04.304Z,0
2017-01-01T23:00:04.230Z,0
2017-01-01T23:05:04.101Z,0
2017-01-01T23:10:04.263Z,0
2017-01-01T23:15:04.435Z,0
2017-01-01T23:20:04.179Z,0
2017-01-01T23:25:04.897Z,0
2017-01-01T23:30:04.875Z,0
2017-01-01T23:35:04.831Z,0
2017-01-01T23:40:05.090Z,0
2017-01-01T23:45:04.951Z,0
2017-01-01T23:50:04.756Z,0
2017-01-01T23:55:04.784Z,0
